createdAt,value
2018-09-27T00:01:23.113Z,5.50
2018-09-27T00:06:26.506Z,5.50
2018-09-27T00:16:32.917Z,5.50
2018-09-27T00:21:36.230Z,5.40
2018-09-27T00:26:40.147Z,5.50
2018-09-27T00:31:43.461Z,5.40
2018-09-27T00:36:46.775Z,5.50
2018-09-27T00:41:50.108Z,5.40
2018-09-27T00:46:53.397Z,5.30
2018-09-27T00:51:56.892Z,5.20
2018-09-27T00:57:00.489Z,5.30
2018-09-27T01:02:04.099Z,5.30
2018-09-27T01:07:07.614Z,5.60
2018-09-27T01:12:10.941Z,5.50
2018-09-27T01:17:14.343Z,5.60
2018-09-27T01:22:17.802Z,5.50
2018-09-27T01:27:21.197Z,5.40
2018-09-27T01:32:24.579Z,5.20
2018-09-27T01:37:29.150Z,5.50
2018-09-27T01:42:32.438Z,5.50
2018-09-27T01:47:35.874Z,5.00
2018-09-27T01:52:39.229Z,5.00
2018-09-27T01:57:42.526Z,4.90
2018-09-27T02:02:46.037Z,4.80
2018-09-27T02:07:49.348Z,4.70
2018-09-27T02:12:52.615Z,4.70
2018-09-27T02:17:56.057Z,4.60
2018-09-27T02:22:59.324Z,4.60
2018-09-27T02:28:02.634Z,4.90
2018-09-27T02:33:05.967Z,5.10
2018-09-27T02:38:09.334Z,4.90
2018-09-27T02:43:12.618Z,4.80
2018-09-27T02:48:15.929Z,4.70
2018-09-27T02:53:19.212Z,4.50
2018-09-27T02:58:22.489Z,4.40
2018-09-27T03:03:25.833Z,4.70
2018-09-27T03:08:29.146Z,4.60
2018-09-27T03:13:32.581Z,4.70
2018-09-27T03:18:35.973Z,4.90
2018-09-27T03:23:39.297Z,4.90
2018-09-27T03:28:42.581Z,4.50
2018-09-27T03:33:46.073Z,4.40
2018-09-27T03:38:49.605Z,4.30
2018-09-27T03:43:53.052Z,4.20
2018-09-27T03:48:56.357Z,4.20
2018-09-27T03:53:59.643Z,4.40
2018-09-27T03:59:03.592Z,4.60
2018-09-27T04:04:06.907Z,4.50
2018-09-27T04:09:10.740Z,4.70
2018-09-27T04:14:14.035Z,4.50
2018-09-27T04:19:17.318Z,4.50
2018-09-27T04:24:20.630Z,4.40
2018-09-27T04:29:24.045Z,4.30
2018-09-27T04:34:27.433Z,4.10
2018-09-27T04:39:30.820Z,4.10
2018-09-27T04:44:34.125Z,4.00
2018-09-27T04:49:37.430Z,4.00
2018-09-27T04:54:40.738Z,4.20
2018-09-27T04:59:44.093Z,4.20
2018-09-27T05:04:47.566Z,4.20
2018-09-27T05:09:50.926Z,4.20
2018-09-27T05:14:54.337Z,4.10
2018-09-27T05:19:57.749Z,4.10
2018-09-27T05:25:01.165Z,4.00
2018-09-27T05:30:04.552Z,4.00
2018-09-27T05:35:08.013Z,4.10
2018-09-27T05:40:11.359Z,4.10
2018-09-27T05:45:14.757Z,4.20
2018-09-27T05:50:18.124Z,4.20
2018-09-27T05:55:21.552Z,4.40
2018-09-27T06:00:24.890Z,4.50
2018-09-27T06:10:31.509Z,4.70
2018-09-27T06:15:35.054Z,5.00
2018-09-27T06:20:38.633Z,5.00
2018-09-27T06:25:42.026Z,5.20
2018-09-27T06:30:45.599Z,5.50
2018-09-27T06:35:49.124Z,5.50
2018-09-27T06:40:52.592Z,5.60
2018-09-27T06:45:55.961Z,6.00
2018-09-27T06:50:59.460Z,6.00
2018-09-27T06:56:02.839Z,6.10
2018-09-27T07:01:06.582Z,6.30
2018-09-27T07:06:10.018Z,6.40
2018-09-27T07:11:13.563Z,6.50
2018-09-27T07:16:17.022Z,6.80
2018-09-27T07:21:20.396Z,6.80
2018-09-27T07:26:23.892Z,6.90
2018-09-27T07:31:27.271Z,7.20
2018-09-27T07:36:30.806Z,7.50
2018-09-27T07:41:34.177Z,7.80
2018-09-27T07:46:37.650Z,7.80
2018-09-27T07:51:41.021Z,8.00
2018-09-27T07:56:44.636Z,8.20
2018-09-27T08:01:48.053Z,8.30
2018-09-27T08:06:51.445Z,8.60
2018-09-27T08:11:54.939Z,8.60
2018-09-27T08:16:58.564Z,8.90
2018-09-27T08:22:02.090Z,9.30
2018-09-27T08:27:05.656Z,9.60
2018-09-27T08:32:09.157Z,10.10
2018-09-27T08:37:12.695Z,10.20
2018-09-27T08:42:16.262Z,10.60
2018-09-27T08:47:19.897Z,10.90
2018-09-27T08:52:23.557Z,11.20
2018-09-27T08:57:26.948Z,11.40
2018-09-27T09:02:30.350Z,11.40
2018-09-27T09:07:33.928Z,11.90
2018-09-27T09:12:37.292Z,11.80
2018-09-27T09:17:40.893Z,12.00
2018-09-27T09:22:44.349Z,12.20
2018-09-27T09:27:47.716Z,12.50
2018-09-27T09:32:51.120Z,12.60
2018-09-27T09:37:54.682Z,13.00
2018-09-27T09:42:58.391Z,13.10
2018-09-27T09:48:01.797Z,13.10
2018-09-27T09:53:05.352Z,13.60
2018-09-27T09:58:08.935Z,13.70
2018-09-27T10:03:12.348Z,13.40
2018-09-27T10:08:15.808Z,13.70
2018-09-27T10:13:19.177Z,14.20
2018-09-27T10:18:22.629Z,14.70
2018-09-27T10:23:26.017Z,15.00
2018-09-27T10:28:29.649Z,15.00
2018-09-27T10:33:33.181Z,15.30
2018-09-27T10:38:36.561Z,15.50
2018-09-27T10:43:40.021Z,15.80
2018-09-27T10:48:43.369Z,16.10
2018-09-27T10:53:46.791Z,16.10
2018-09-27T10:58:50.192Z,16.00
2018-09-27T11:03:53.587Z,16.10
2018-09-27T11:08:57.161Z,16.50
2018-09-27T11:14:00.541Z,16.50
2018-09-27T11:19:03.874Z,17.00
2018-09-27T11:24:07.284Z,17.60
2018-09-27T11:29:16.030Z,17.40
2018-09-27T11:34:19.438Z,17.40
2018-09-27T11:39:23.083Z,17.50
2018-09-27T11:44:26.586Z,17.50
2018-09-27T11:49:29.994Z,17.60
2018-09-27T11:54:33.445Z,18.20
2018-09-27T11:59:36.786Z,18.60
2018-09-27T12:04:40.173Z,18.80
2018-09-27T12:09:43.673Z,18.60
2018-09-27T12:14:46.979Z,18.60
2018-09-27T12:19:50.325Z,19.20
2018-09-27T12:24:53.673Z,19.20
2018-09-27T12:29:57.085Z,19.20
2018-09-27T12:35:00.477Z,19.60
2018-09-27T12:40:03.863Z,19.50
2018-09-27T12:45:07.367Z,19.80
2018-09-27T12:50:10.689Z,19.90
2018-09-27T12:55:14.037Z,20.10
2018-09-27T13:00:17.366Z,20.30
2018-09-27T13:05:20.708Z,20.30
2018-09-27T13:10:24.753Z,20.70
2018-09-27T13:15:28.068Z,20.50
2018-09-27T13:20:31.516Z,21.00
2018-09-27T13:25:34.881Z,21.20
2018-09-27T13:30:38.366Z,20.80
2018-09-27T13:35:41.709Z,21.20
2018-09-27T13:40:45.117Z,21.40
2018-09-27T13:45:48.557Z,21.30
2018-09-27T13:50:51.896Z,21.60
2018-09-27T13:55:55.300Z,21.70
2018-09-27T14:00:58.652Z,21.50
2018-09-27T14:06:01.999Z,21.50
2018-09-27T14:11:05.315Z,21.70
2018-09-27T14:16:08.781Z,22.00
2018-09-27T14:21:12.320Z,22.10
2018-09-27T14:26:15.734Z,22.00
2018-09-27T14:31:19.144Z,22.10
2018-09-27T14:36:22.628Z,22.40
2018-09-27T14:41:26.091Z,22.30
2018-09-27T14:46:29.566Z,21.70
2018-09-27T14:51:33.069Z,22.30
2018-09-27T14:56:36.470Z,22.00
2018-09-27T15:07:07.664Z,22.60
2018-09-27T15:12:11.160Z,22.50
2018-09-27T15:17:14.549Z,22.50
2018-09-27T15:22:17.890Z,22.50
2018-09-27T15:27:21.847Z,22.40
2018-09-27T15:32:25.205Z,22.50
2018-09-27T15:37:28.525Z,22.70
2018-09-27T15:42:31.936Z,24.70
2018-09-27T15:47:35.316Z,26.00
2018-09-27T15:52:38.653Z,24.20
2018-09-27T15:57:42.121Z,22.60
2018-09-27T16:02:45.569Z,21.70
2018-09-27T16:07:48.905Z,21.50
2018-09-27T16:12:52.289Z,21.00
2018-09-27T16:17:55.717Z,20.60
2018-09-27T16:22:59.066Z,20.30
2018-09-27T16:28:02.621Z,20.10
2018-09-27T16:33:06.127Z,19.80
2018-09-27T16:38:09.518Z,19.30
2018-09-27T16:43:12.910Z,19.00
2018-09-27T16:48:16.447Z,18.60
2018-09-27T16:53:19.778Z,18.30
2018-09-27T16:58:23.253Z,18.00
2018-09-27T17:03:26.696Z,17.80
2018-09-27T17:08:30.046Z,17.60
2018-09-27T17:13:33.461Z,17.30
2018-09-27T17:18:36.889Z,17.00
2018-09-27T17:23:40.318Z,16.80
2018-09-27T17:28:43.674Z,16.60
2018-09-27T17:33:47.341Z,16.50
2018-09-27T17:38:56.777Z,16.20
2018-09-27T17:44:00.224Z,15.90
2018-09-27T17:49:03.594Z,15.60
2018-09-27T17:54:07.629Z,15.30
2018-09-27T17:59:11.088Z,15.20
2018-09-27T18:04:14.400Z,15.10
2018-09-27T18:09:17.819Z,14.80
2018-09-27T18:14:21.165Z,14.50
2018-09-27T18:19:24.766Z,14.30
2018-09-27T18:24:28.073Z,14.10
2018-09-27T18:29:31.898Z,14.00
2018-09-27T18:34:35.257Z,13.80
2018-09-27T18:39:38.714Z,13.60
2018-09-27T18:44:42.610Z,13.50
2018-09-27T18:49:46.062Z,13.30
2018-09-27T18:54:49.421Z,13.10
2018-09-27T18:59:53.704Z,12.80
2018-09-27T19:04:57.279Z,12.70
2018-09-27T19:10:00.651Z,12.70
2018-09-27T19:15:04.209Z,12.70
2018-09-27T19:20:07.553Z,12.60
2018-09-27T19:25:11.772Z,12.70
2018-09-27T19:30:15.297Z,12.40
2018-09-27T19:35:18.604Z,12.40
2018-09-27T19:40:21.918Z,12.60
2018-09-27T19:45:25.312Z,12.50
2018-09-27T19:50:28.747Z,12.30
2018-09-27T19:55:32.158Z,12.20
2018-09-27T20:00:35.575Z,12.10
2018-09-27T20:05:39.424Z,12.00
2018-09-27T20:10:42.813Z,11.80
2018-09-27T20:15:46.129Z,11.50
2018-09-27T20:20:49.475Z,11.60
2018-09-27T20:25:52.884Z,11.50
2018-09-27T20:30:56.351Z,11.50
2018-09-27T20:35:59.969Z,11.40
2018-09-27T20:41:03.652Z,11.00
2018-09-27T20:46:07.867Z,10.90
2018-09-27T20:51:11.453Z,10.60
2018-09-27T20:56:14.957Z,10.30
2018-09-27T21:01:18.291Z,10.30
2018-09-27T21:06:21.772Z,10.10
2018-09-27T21:11:25.101Z,9.90
2018-09-27T21:16:28.433Z,9.80
2018-09-27T21:21:31.726Z,10.00
2018-09-27T21:26:35.186Z,9.90
2018-09-27T21:31:38.353Z,9.80
2018-09-27T21:36:41.629Z,9.80
2018-09-27T21:41:45.032Z,9.80
2018-09-27T21:46:48.333Z,9.90
2018-09-27T21:51:51.853Z,10.00
2018-09-27T21:56:55.177Z,9.80
2018-09-27T22:01:58.683Z,9.80
2018-09-27T22:07:02.070Z,9.70
2018-09-27T22:12:05.397Z,9.80
2018-09-27T22:17:08.686Z,9.70
2018-09-27T22:22:12.154Z,9.50
2018-09-27T22:27:15.456Z,9.60
2018-09-27T22:32:18.960Z,9.50
2018-09-27T22:37:22.330Z,9.40
2018-09-27T22:42:25.949Z,8.90
2018-09-27T22:47:29.245Z,8.70
2018-09-27T22:52:32.616Z,8.60
2018-09-27T22:57:36.074Z,8.50
2018-09-27T23:02:39.463Z,8.40
2018-09-27T23:07:42.899Z,8.30
2018-09-27T23:12:46.278Z,8.30
2018-09-27T23:17:49.753Z,8.20
2018-09-27T23:22:53.102Z,8.20
2018-09-27T23:27:56.499Z,8.20
2018-09-27T23:32:59.797Z,8.10
2018-09-27T23:38:03.244Z,8.30
2018-09-27T23:43:06.570Z,8.00
2018-09-27T23:48:10.077Z,7.90
2018-09-27T23:53:13.393Z,8.00
2018-09-27T23:58:16.688Z,8.00
